createdAt,value
2018-10-11T00:02:23.170Z,30.48
2018-10-11T00:04:59.814Z,30.48
2018-10-11T00:07:36.593Z,30.49
2018-10-11T00:10:13.011Z,30.50
2018-10-11T00:12:49.474Z,30.51
2018-10-11T00:15:25.727Z,30.50
2018-10-11T00:18:02.456Z,30.50
2018-10-11T00:20:38.842Z,30.50
2018-10-11T00:23:15.491Z,30.50
2018-10-11T00:25:51.790Z,30.52
2018-10-11T00:28:27.993Z,30.49
2018-10-11T00:31:04.009Z,30.51
2018-10-11T00:33:40.238Z,30.50
2018-10-11T00:36:16.575Z,30.53
2018-10-11T00:38:52.976Z,30.53
2018-10-11T00:41:30.253Z,30.53
2018-10-11T00:44:06.862Z,30.54
2018-10-11T00:46:42.833Z,30.54
2018-10-11T00:49:18.730Z,30.54
2018-10-11T00:51:55.096Z,30.53
2018-10-11T00:54:31.300Z,30.51
2018-10-11T00:57:07.763Z,30.50
2018-10-11T00:59:44.089Z,30.48
2018-10-11T01:03:07.865Z,30.43
2018-10-11T01:05:44.241Z,30.45
2018-10-11T01:08:20.283Z,30.45
2018-10-11T01:10:57.349Z,30.46
2018-10-11T01:13:33.830Z,30.45
2018-10-11T01:16:09.869Z,30.45
2018-10-11T01:18:47.926Z,30.42
2018-10-11T01:21:24.235Z,30.41
2018-10-11T01:24:00.641Z,30.35
2018-10-11T01:26:37.061Z,30.41
2018-10-11T01:29:13.208Z,30.40
2018-10-11T01:31:49.232Z,30.37
2018-10-11T01:34:25.558Z,30.35
2018-10-11T01:37:01.889Z,30.33
2018-10-11T01:39:38.095Z,30.32
2018-10-11T01:42:14.000Z,30.31
2018-10-11T01:44:50.642Z,30.30
2018-10-11T01:47:26.889Z,30.29
2018-10-11T01:50:05.273Z,30.27
2018-10-11T01:52:42.627Z,30.24
2018-10-11T01:55:19.352Z,30.22
2018-10-11T01:57:55.093Z,30.21
2018-10-11T02:00:31.174Z,30.20
2018-10-11T02:03:07.248Z,30.20
2018-10-11T02:05:43.853Z,30.19
2018-10-11T02:08:21.058Z,30.18
2018-10-11T02:10:56.981Z,30.16
2018-10-11T02:13:32.889Z,30.15
2018-10-11T02:16:08.886Z,30.14
2018-10-11T02:18:45.070Z,30.12
2018-10-11T02:21:20.890Z,30.11
2018-10-11T02:23:57.097Z,30.09
2018-10-11T02:26:33.832Z,30.06
2018-10-11T02:29:11.218Z,30.04
2018-10-11T02:31:47.711Z,30.03
2018-10-11T02:34:23.894Z,30.03
2018-10-11T02:36:59.883Z,30.02
2018-10-11T02:39:36.122Z,30.02
2018-10-11T02:42:12.572Z,30.00
2018-10-11T02:44:49.076Z,29.98
2018-10-11T02:47:25.265Z,29.97
2018-10-11T02:50:01.611Z,29.97
2018-10-11T02:52:38.079Z,29.95
2018-10-11T02:55:19.615Z,29.94
2018-10-11T02:58:09.507Z,29.96
2018-10-11T03:00:45.650Z,29.95
2018-10-11T03:03:25.729Z,29.93
2018-10-11T03:06:04.673Z,29.91
2018-10-11T03:08:41.030Z,29.89
2018-10-11T03:11:18.030Z,29.89
2018-10-11T03:13:53.905Z,29.85
2018-10-11T03:16:31.258Z,29.90
2018-10-11T03:19:07.745Z,29.92
2018-10-11T03:21:42.036Z,29.94
2018-10-11T03:24:17.924Z,29.95
2018-10-11T03:26:53.876Z,29.95
2018-10-11T03:29:30.365Z,29.94
2018-10-11T03:32:07.714Z,29.95
2018-10-11T03:34:44.631Z,29.95
2018-10-11T03:37:21.238Z,29.95
2018-10-11T03:39:57.374Z,29.96
2018-10-11T03:42:34.255Z,29.97
2018-10-11T03:45:10.254Z,29.96
2018-10-11T03:47:46.926Z,29.96
2018-10-11T03:50:23.290Z,29.93
2018-10-11T03:53:01.147Z,29.87
2018-10-11T03:55:37.308Z,29.88
2018-10-11T03:58:13.685Z,29.88
2018-10-11T04:00:47.836Z,29.88
2018-10-11T04:03:24.106Z,29.86
2018-10-11T04:05:59.910Z,29.88
2018-10-11T04:09:57.511Z,29.82
2018-10-11T04:12:33.273Z,29.82
2018-10-11T04:15:08.678Z,29.79
2018-10-11T04:17:44.906Z,29.80
2018-10-11T04:20:21.214Z,29.80
2018-10-11T04:25:29.334Z,29.78
2018-10-11T04:28:05.510Z,29.76
2018-10-11T04:30:41.265Z,29.79
2018-10-11T04:33:16.930Z,29.77
2018-10-11T04:35:52.920Z,29.77
2018-10-11T04:38:29.504Z,29.75
2018-10-11T04:41:05.489Z,29.78
2018-10-11T04:43:41.720Z,29.83
2018-10-11T04:46:18.940Z,29.85
2018-10-11T04:48:54.591Z,29.88
2018-10-11T04:51:30.689Z,29.88
2018-10-11T04:54:06.709Z,29.90
2018-10-11T04:56:42.717Z,29.91
2018-10-11T04:59:19.109Z,29.92
2018-10-11T05:01:56.411Z,29.91
2018-10-11T05:04:32.173Z,29.90
2018-10-11T05:07:08.293Z,29.87
2018-10-11T05:09:44.404Z,29.79
2018-10-11T05:12:20.179Z,29.81
2018-10-11T05:14:56.912Z,29.82
2018-10-11T05:17:32.713Z,29.83
2018-10-11T05:20:10.550Z,29.82
2018-10-11T05:22:46.333Z,29.84
2018-10-11T05:25:23.500Z,29.87
2018-10-11T05:28:00.004Z,29.90
2018-10-11T05:30:36.781Z,29.91
2018-10-11T05:33:12.781Z,29.95
2018-10-11T05:35:48.840Z,29.94
2018-10-11T05:38:24.719Z,29.92
2018-10-11T05:41:01.596Z,29.95
2018-10-11T05:43:37.963Z,29.97
2018-10-11T05:46:36.312Z,29.99
2018-10-11T05:49:12.805Z,30.03
2018-10-11T05:51:48.723Z,30.02
2018-10-11T05:54:24.861Z,30.00
2018-10-11T05:57:00.857Z,30.00
2018-10-11T05:59:36.779Z,30.00
2018-10-11T06:02:12.724Z,29.99
2018-10-11T06:04:48.710Z,29.98
2018-10-11T06:07:24.639Z,29.96
2018-10-11T06:10:00.813Z,29.95
2018-10-11T06:12:36.777Z,29.95
2018-10-11T06:15:12.424Z,29.94
2018-10-11T06:17:48.842Z,29.91
2018-10-11T06:20:24.824Z,29.93
2018-10-11T06:23:01.153Z,29.90
2018-10-11T06:25:37.775Z,29.86
2018-10-11T06:28:14.989Z,29.83
2018-10-11T06:30:51.037Z,29.79
2018-10-11T06:33:26.725Z,29.76
2018-10-11T06:36:03.098Z,29.70
2018-10-11T06:38:38.977Z,29.65
2018-10-11T06:41:14.971Z,29.63
2018-10-11T06:43:50.960Z,29.60
2018-10-11T06:46:26.656Z,29.55
2018-10-11T06:49:02.199Z,29.52
2018-10-11T06:51:38.386Z,29.50
2018-10-11T06:54:14.409Z,29.44
2018-10-11T06:56:50.982Z,29.44
2018-10-11T06:59:27.267Z,29.48
2018-10-11T07:02:03.262Z,29.48
2018-10-11T07:04:39.732Z,29.49
2018-10-11T07:07:15.958Z,29.51
2018-10-11T07:09:51.782Z,29.51
2018-10-11T07:12:27.366Z,29.55
2018-10-11T07:15:03.669Z,29.58
2018-10-11T07:17:40.719Z,29.63
2018-10-11T07:20:17.545Z,29.68
2018-10-11T07:22:53.593Z,29.73
2018-10-11T07:25:29.561Z,29.74
2018-10-11T07:28:06.161Z,29.76
2018-10-11T07:30:42.174Z,29.78
2018-10-11T07:33:18.218Z,29.77
2018-10-11T07:35:54.167Z,29.79
2018-10-11T07:38:30.002Z,29.79
2018-10-11T07:41:06.072Z,29.78
2018-10-11T07:43:42.637Z,29.73
2018-10-11T07:46:18.891Z,29.78
2018-10-11T07:51:23.974Z,29.74
2018-10-11T07:54:04.163Z,29.74
2018-10-11T07:56:40.549Z,29.74
2018-10-11T07:59:16.915Z,29.74
2018-10-11T08:01:52.909Z,29.72
2018-10-11T08:04:29.049Z,29.73
2018-10-11T08:07:05.175Z,29.73
2018-10-11T08:09:41.138Z,29.70
2018-10-11T08:12:17.353Z,29.70
2018-10-11T08:14:53.821Z,29.69
2018-10-11T08:17:30.031Z,29.66
2018-10-11T08:20:06.312Z,29.66
2018-10-11T08:22:42.792Z,29.66
2018-10-11T08:25:19.632Z,29.65
2018-10-11T08:27:53.725Z,29.63
2018-10-11T08:30:29.912Z,29.63
2018-10-11T08:33:06.232Z,29.62
2018-10-11T08:35:42.014Z,29.61
2018-10-11T08:38:18.888Z,29.59
2018-10-11T08:40:55.221Z,29.59
2018-10-11T08:43:31.265Z,29.58
2018-10-11T08:46:07.629Z,29.56
2018-10-11T08:48:43.973Z,29.55
2018-10-11T08:51:20.028Z,29.56
2018-10-11T08:53:56.353Z,29.55
2018-10-11T08:56:32.465Z,29.53
2018-10-11T08:59:09.054Z,29.52
2018-10-11T09:01:44.925Z,29.50
2018-10-11T09:04:21.025Z,29.49
2018-10-11T09:06:57.026Z,29.48
2018-10-11T09:09:33.209Z,29.46
2018-10-11T09:12:09.736Z,29.45
2018-10-11T09:14:45.869Z,29.45
2018-10-11T09:17:21.982Z,29.43
2018-10-11T09:19:58.013Z,29.42
2018-10-11T09:22:33.937Z,29.39
2018-10-11T09:25:09.945Z,29.38
2018-10-11T09:27:45.969Z,29.36
2018-10-11T09:30:22.431Z,29.36
2018-10-11T09:32:58.937Z,29.36
2018-10-11T09:35:35.036Z,29.34
2018-10-11T09:38:11.252Z,29.33
2018-10-11T09:40:47.237Z,29.32
2018-10-11T09:43:23.038Z,29.31
2018-10-11T09:45:58.946Z,29.29
2018-10-11T09:48:35.071Z,29.29
2018-10-11T09:51:12.258Z,29.28
2018-10-11T09:53:48.392Z,29.25
2018-10-11T09:56:25.043Z,29.24
2018-10-11T09:59:01.418Z,29.23
2018-10-11T10:01:48.854Z,29.23
2018-10-11T10:04:24.815Z,29.22
2018-10-11T10:07:01.221Z,29.19
2018-10-11T10:09:37.235Z,29.18
2018-10-11T10:12:13.847Z,29.17
2018-10-11T10:14:50.388Z,29.16
2018-10-11T10:17:26.225Z,29.15
2018-10-11T10:20:02.450Z,29.14
2018-10-11T10:22:41.739Z,29.13
2018-10-11T10:25:18.054Z,29.12
2018-10-11T10:27:54.058Z,29.11
2018-10-11T10:30:33.965Z,29.10
2018-10-11T10:33:10.017Z,29.09
2018-10-11T10:35:45.730Z,29.08
2018-10-11T10:38:21.890Z,29.06
2018-10-11T10:40:57.897Z,29.04
2018-10-11T10:43:33.869Z,29.03
2018-10-11T10:46:09.971Z,29.02
2018-10-11T10:48:45.751Z,29.01
2018-10-11T10:51:21.445Z,28.99
2018-10-11T10:53:57.806Z,28.98
2018-10-11T10:56:33.414Z,28.97
2018-10-11T10:59:09.410Z,28.97
2018-10-11T11:01:45.672Z,28.95
2018-10-11T11:04:22.000Z,28.95
2018-10-11T11:06:58.020Z,28.95
2018-10-11T11:09:34.020Z,28.93
2018-10-11T11:12:09.706Z,28.93
2018-10-11T11:14:45.734Z,28.91
2018-10-11T11:17:21.771Z,28.91
2018-10-11T11:19:58.231Z,28.90
2018-10-11T11:22:34.439Z,28.90
2018-10-11T11:25:10.439Z,28.88
2018-10-11T11:27:46.409Z,28.88
2018-10-11T11:30:23.252Z,28.86
2018-10-11T11:32:59.062Z,28.87
2018-10-11T11:35:35.747Z,28.85
2018-10-11T11:38:13.251Z,28.83
2018-10-11T11:40:49.250Z,28.83
2018-10-11T11:43:25.250Z,28.82
2018-10-11T11:46:01.245Z,28.81
2018-10-11T11:48:37.259Z,28.80
2018-10-11T11:51:14.458Z,28.79
2018-10-11T11:53:50.478Z,28.80
2018-10-11T11:56:26.457Z,28.74
2018-10-11T11:59:02.273Z,28.75
2018-10-11T12:01:38.265Z,28.74
2018-10-11T12:04:14.301Z,28.74
2018-10-11T12:06:50.453Z,28.72
2018-10-11T12:09:26.752Z,28.73
2018-10-11T12:12:03.091Z,28.73
2018-10-11T12:14:38.909Z,28.71
2018-10-11T12:17:14.709Z,28.71
2018-10-11T12:19:50.734Z,28.68
2018-10-11T12:22:27.137Z,28.69
2018-10-11T12:25:04.274Z,28.67
2018-10-11T12:27:40.030Z,28.65
2018-10-11T12:30:16.483Z,28.65
2018-10-11T12:32:52.506Z,28.63
2018-10-11T12:35:29.066Z,28.62
2018-10-11T12:38:05.341Z,28.59
2018-10-11T12:40:41.361Z,28.59
2018-10-11T12:43:18.107Z,28.58
2018-10-11T12:45:54.304Z,28.57
2018-10-11T12:48:30.025Z,28.56
2018-10-11T12:51:06.299Z,28.55
2018-10-11T12:53:45.093Z,28.53
2018-10-11T12:56:18.467Z,28.53
2018-10-11T12:58:54.305Z,28.52
2018-10-11T13:01:30.277Z,28.50
2018-10-11T13:04:06.464Z,28.49
2018-10-11T13:06:42.280Z,28.47
2018-10-11T13:09:18.342Z,28.45
2018-10-11T13:11:54.358Z,28.44
2018-10-11T13:14:30.281Z,28.42
2018-10-11T13:17:06.108Z,28.42
2018-10-11T13:19:42.111Z,28.42
2018-10-11T13:22:18.302Z,28.41
2018-10-11T13:24:54.286Z,28.40
2018-10-11T13:27:30.069Z,28.39
2018-10-11T13:30:06.290Z,28.39
2018-10-11T13:32:42.289Z,28.38
2018-10-11T13:35:18.008Z,28.37
2018-10-11T13:37:54.150Z,28.35
2018-10-11T13:40:30.295Z,28.35
2018-10-11T13:43:06.885Z,28.34
2018-10-11T13:47:52.299Z,28.35
2018-10-11T13:50:28.063Z,28.32
2018-10-11T13:53:04.102Z,28.28
2018-10-11T13:55:40.246Z,28.25
2018-10-11T13:58:16.303Z,28.21
2018-10-11T14:00:52.058Z,28.16
2018-10-11T14:03:28.080Z,28.11
2018-10-11T14:06:04.150Z,28.07
2018-10-11T14:08:40.140Z,28.03
2018-10-11T14:11:16.070Z,28.01
2018-10-11T14:13:53.040Z,27.97
2018-10-11T14:16:29.149Z,27.96
2018-10-11T14:19:05.135Z,27.95
2018-10-11T14:21:43.129Z,27.91
2018-10-11T14:24:19.586Z,27.87
2018-10-11T14:26:56.130Z,27.83
2018-10-11T14:29:32.521Z,27.81
2018-10-11T14:32:08.326Z,27.77
2018-10-11T14:34:44.337Z,27.75
2018-10-11T14:37:21.079Z,27.74
2018-10-11T14:39:57.122Z,27.73
2018-10-11T14:42:33.133Z,27.72
2018-10-11T14:45:10.078Z,27.70
2018-10-11T14:47:46.049Z,27.70
2018-10-11T14:50:22.484Z,27.67
2018-10-11T14:52:59.048Z,27.65
2018-10-11T14:55:35.078Z,27.65
2018-10-11T14:58:11.144Z,27.64
2018-10-11T15:00:47.140Z,27.65
2018-10-11T15:03:23.399Z,27.63
2018-10-11T15:05:59.543Z,27.63
2018-10-11T15:08:35.500Z,27.62
2018-10-11T15:11:11.756Z,27.61
2018-10-11T15:13:47.903Z,27.59
2018-10-11T15:16:24.138Z,27.58
2018-10-11T15:19:00.269Z,27.57
2018-10-11T15:21:36.147Z,27.57
2018-10-11T15:24:12.495Z,27.56
2018-10-11T15:26:48.887Z,27.57
2018-10-11T15:29:25.267Z,27.59
2018-10-11T15:32:01.924Z,27.57
2018-10-11T15:34:37.967Z,27.55
2018-10-11T15:37:14.145Z,27.56
2018-10-11T15:39:50.354Z,27.56
2018-10-11T15:42:26.207Z,27.53
2018-10-11T15:45:02.068Z,27.54
2018-10-11T15:47:38.336Z,27.56
2018-10-11T15:50:14.153Z,27.57
2018-10-11T15:52:50.151Z,27.57
2018-10-11T15:55:26.340Z,27.56
2018-10-11T15:58:02.910Z,27.56
2018-10-11T16:00:39.054Z,27.55
2018-10-11T16:03:15.129Z,27.54
2018-10-11T16:05:51.166Z,27.55
2018-10-11T16:08:27.333Z,27.54
2018-10-11T16:11:03.158Z,27.54
2018-10-11T16:16:30.087Z,27.52
2018-10-11T16:19:05.810Z,27.54
2018-10-11T16:21:42.288Z,27.54
2018-10-11T16:24:18.334Z,27.54
2018-10-11T16:26:54.074Z,27.54
2018-10-11T16:29:29.529Z,27.54
2018-10-11T16:32:05.081Z,27.52
2018-10-11T16:34:41.046Z,27.52
2018-10-11T16:37:17.346Z,27.53
2018-10-11T16:39:53.061Z,27.54
2018-10-11T16:42:29.365Z,27.52
2018-10-11T16:45:05.377Z,27.53
2018-10-11T16:47:41.259Z,27.54
2018-10-11T16:50:17.365Z,27.57
2018-10-11T16:52:53.345Z,27.58
2018-10-11T16:55:28.902Z,27.57
2018-10-11T16:58:05.475Z,27.61
2018-10-11T17:00:41.845Z,27.62
2018-10-11T17:03:17.549Z,27.66
2018-10-11T17:05:53.299Z,27.70
2018-10-11T17:08:29.177Z,27.72
2018-10-11T17:11:05.993Z,27.75
2018-10-11T17:13:41.989Z,27.79
2018-10-11T17:16:17.929Z,27.81
2018-10-11T17:18:54.353Z,27.83
2018-10-11T17:21:30.437Z,27.84
2018-10-11T17:24:06.349Z,27.85
2018-10-11T17:26:42.003Z,27.85
2018-10-11T17:29:18.952Z,27.86
2018-10-11T17:34:18.010Z,27.90
2018-10-11T17:36:53.566Z,27.87
2018-10-11T17:39:29.311Z,27.89
2018-10-11T17:42:05.149Z,27.90
2018-10-11T17:44:40.847Z,27.90
2018-10-11T17:47:17.184Z,27.93
2018-10-11T17:49:52.821Z,27.94
2018-10-11T17:52:28.930Z,27.96
2018-10-11T17:55:05.323Z,27.95
2018-10-11T17:57:41.195Z,27.97
2018-10-11T18:00:17.587Z,27.99
2018-10-11T18:02:54.210Z,27.97
2018-10-11T18:05:29.942Z,28.02
2018-10-11T18:08:05.550Z,28.03
2018-10-11T18:10:42.328Z,28.05
2018-10-11T18:13:18.853Z,28.05
2018-10-11T18:15:54.954Z,28.07
2018-10-11T18:18:31.004Z,28.07
2018-10-11T18:21:07.865Z,28.09
2018-10-11T18:23:44.368Z,28.10
2018-10-11T18:26:20.421Z,28.10
2018-10-11T18:28:55.861Z,28.11
2018-10-11T18:31:32.203Z,28.14
2018-10-11T18:34:08.109Z,28.19
2018-10-11T18:36:43.576Z,28.22
2018-10-11T18:39:19.381Z,28.24
2018-10-11T18:41:55.051Z,28.28
2018-10-11T18:44:31.445Z,28.31
2018-10-11T18:47:06.986Z,28.33
2018-10-11T18:49:42.391Z,28.35
2018-10-11T18:52:18.216Z,28.40
2018-10-11T18:54:54.335Z,28.43
2018-10-11T18:57:30.388Z,28.47
2018-10-11T19:00:06.040Z,28.54
2018-10-11T19:02:41.585Z,28.61
2018-10-11T19:05:17.545Z,28.65
2018-10-11T19:07:53.216Z,28.67
2018-10-11T19:10:28.580Z,28.72
2018-10-11T19:13:04.189Z,28.74
2018-10-11T19:15:39.693Z,28.79
2018-10-11T19:18:15.577Z,28.76
2018-10-11T19:20:51.595Z,28.84
2018-10-11T19:23:27.851Z,28.86
2018-10-11T19:26:04.030Z,28.89
2018-10-11T19:28:39.704Z,28.92
2018-10-11T19:31:15.931Z,28.96
2018-10-11T19:33:51.570Z,28.97
2018-10-11T19:36:28.054Z,28.99
2018-10-11T19:39:04.564Z,29.00
2018-10-11T19:41:40.585Z,29.02
2018-10-11T19:44:16.602Z,29.05
2018-10-11T19:46:53.145Z,29.10
2018-10-11T19:49:29.229Z,29.11
2018-10-11T19:52:05.230Z,29.13
2018-10-11T19:54:42.640Z,29.14
2018-10-11T19:57:18.408Z,29.16
2018-10-11T19:59:54.193Z,29.17
2018-10-11T20:02:30.231Z,29.20
2018-10-11T20:05:06.430Z,29.22
2018-10-11T20:07:42.057Z,29.25
2018-10-11T20:10:17.934Z,29.27
2018-10-11T20:12:54.405Z,29.27
2018-10-11T20:15:30.570Z,29.30
2018-10-11T20:18:06.585Z,29.30
2018-10-11T20:20:42.240Z,29.30
2018-10-11T20:23:18.242Z,29.32
2018-10-11T20:25:54.234Z,29.36
2018-10-11T20:28:30.993Z,29.36
2018-10-11T20:31:07.418Z,29.40
2018-10-11T20:33:43.214Z,29.42
2018-10-11T20:36:19.413Z,29.45
2018-10-11T20:38:55.421Z,29.48
2018-10-11T20:41:31.589Z,29.51
2018-10-11T20:44:08.574Z,29.53
2018-10-11T20:46:44.665Z,29.55
2018-10-11T20:49:20.422Z,29.57
2018-10-11T20:51:56.246Z,29.58
2018-10-11T20:54:32.131Z,29.60
2018-10-11T20:57:08.997Z,29.64
2018-10-11T20:59:45.146Z,29.62
2018-10-11T21:02:21.250Z,29.68
2018-10-11T21:04:57.431Z,29.71
2018-10-11T21:07:33.337Z,29.75
2018-10-11T21:10:09.426Z,29.76
2018-10-11T21:12:45.999Z,29.79
2018-10-11T21:15:21.967Z,29.82
2018-10-11T21:17:58.633Z,29.85
2018-10-11T21:20:34.867Z,29.86
2018-10-11T21:23:11.235Z,29.87
2018-10-11T21:25:47.245Z,29.89
2018-10-11T21:28:23.540Z,29.92
2018-10-11T21:31:00.009Z,29.94
2018-10-11T21:33:36.442Z,29.95
2018-10-11T21:36:12.308Z,29.98
2018-10-11T21:38:48.261Z,29.99
2018-10-11T21:41:24.137Z,30.01
2018-10-11T21:44:00.093Z,30.04
2018-10-11T21:46:36.163Z,30.08
2018-10-11T21:49:12.262Z,30.07
2018-10-11T21:51:48.475Z,30.10
2018-10-11T21:54:24.447Z,30.12
2018-10-11T21:57:00.089Z,30.12
2018-10-11T21:59:36.186Z,30.15
2018-10-11T22:02:12.253Z,30.17
2018-10-11T22:04:48.070Z,30.19
2018-10-11T22:07:24.007Z,30.21
2018-10-11T22:10:00.074Z,30.18
2018-10-11T22:12:35.627Z,30.23
2018-10-11T22:15:11.301Z,30.25
2018-10-11T22:17:47.150Z,30.26
2018-10-11T22:20:23.264Z,30.27
2018-10-11T22:22:59.603Z,30.28
2018-10-11T22:25:36.067Z,30.30
2018-10-11T22:28:12.276Z,30.32
2018-10-11T22:30:48.297Z,30.31
2018-10-11T22:33:24.498Z,30.33
2018-10-11T22:36:00.866Z,30.35
2018-10-11T22:38:36.921Z,30.37
2018-10-11T22:41:13.949Z,30.40
2018-10-11T22:43:49.940Z,30.41
2018-10-11T22:46:25.650Z,30.41
2018-10-11T22:49:02.181Z,30.43
2018-10-11T22:51:38.456Z,30.46
2018-10-11T22:54:14.843Z,30.48
2018-10-11T22:56:51.148Z,30.48
2018-10-11T22:59:27.282Z,30.49
2018-10-11T23:02:03.308Z,30.50
2018-10-11T23:04:39.752Z,30.49
2018-10-11T23:07:15.582Z,30.50
2018-10-11T23:09:51.970Z,30.50
2018-10-11T23:12:28.230Z,30.52
2018-10-11T23:15:03.958Z,30.53
2018-10-11T23:17:40.292Z,30.54
2018-10-11T23:20:16.014Z,30.54
2018-10-11T23:22:51.765Z,30.55
2018-10-11T23:25:28.153Z,30.57
2018-10-11T23:28:04.151Z,30.58
2018-10-11T23:30:40.228Z,30.59
2018-10-11T23:33:16.227Z,30.60
2018-10-11T23:35:52.093Z,30.62
2018-10-11T23:38:28.226Z,30.62
2018-10-11T23:41:04.665Z,30.63
2018-10-11T23:43:40.687Z,30.64
2018-10-11T23:46:16.867Z,30.65
2018-10-11T23:48:52.744Z,30.65
2018-10-11T23:51:28.729Z,30.66
2018-10-11T23:54:04.661Z,30.68
2018-10-11T23:56:40.503Z,30.67
2018-10-11T23:59:16.473Z,30.69
